createdAt,value
2022-12-12T00:02:11.824Z,97801.00
2022-12-12T00:04:38.557Z,97790.56
2022-12-12T00:07:05.580Z,97800.09
2022-12-12T00:09:33.006Z,97797.50
2022-12-12T00:11:59.702Z,97796.63
2022-12-12T00:14:26.388Z,97798.41
2022-12-12T00:16:53.090Z,97794.88
2022-12-12T00:19:19.794Z,97786.22
2022-12-12T00:21:47.127Z,97794.88
2022-12-12T00:24:13.798Z,97791.41
2022-12-12T00:26:40.488Z,97793.16
2022-12-12T00:29:07.555Z,97795.75
2022-12-12T00:31:34.224Z,97795.78
2022-12-12T00:34:00.988Z,97800.97
2022-12-12T00:36:30.941Z,97800.06
2022-12-12T00:38:58.336Z,97800.88
2022-12-12T00:41:25.115Z,97807.88
2022-12-12T00:43:51.805Z,97798.31
2022-12-12T00:46:21.546Z,97801.78
2022-12-12T00:48:48.368Z,97801.75
2022-12-12T00:51:21.184Z,97800.88
2022-12-12T00:53:48.713Z,97799.06
2022-12-12T00:56:17.222Z,97801.66
2022-12-12T00:58:43.944Z,97799.06
2022-12-12T01:01:13.742Z,97795.53
2022-12-12T01:03:42.232Z,97799.94
2022-12-12T01:06:10.321Z,97802.53
2022-12-12T01:08:38.032Z,97806.91
2022-12-12T01:11:05.952Z,97806.06
2022-12-12T01:13:32.896Z,97815.56
2022-12-12T01:15:59.765Z,97815.50
2022-12-12T01:18:26.712Z,97818.03
2022-12-12T01:20:53.821Z,97821.47
2022-12-12T01:23:20.490Z,97819.75
2022-12-12T01:25:47.205Z,97816.38
2022-12-12T01:28:14.581Z,97819.88
2022-12-12T01:30:41.313Z,97826.88
2022-12-12T01:33:07.992Z,97822.59
2022-12-12T01:35:35.027Z,97823.47
2022-12-12T01:38:01.797Z,97823.47
2022-12-12T01:40:30.699Z,97821.69
2022-12-12T01:42:59.428Z,97827.72
2022-12-12T01:45:54.170Z,97829.44
2022-12-12T01:48:23.516Z,97828.59
2022-12-12T01:50:51.043Z,97829.47
2022-12-12T01:53:19.361Z,97832.06
2022-12-12T01:55:48.030Z,97827.69
2022-12-12T01:58:16.108Z,97839.03
2022-12-12T02:00:43.377Z,97835.59
2022-12-12T02:03:10.297Z,97830.38
2022-12-12T02:05:44.964Z,97832.13
2022-12-12T02:08:13.068Z,97831.28
2022-12-12T02:10:39.819Z,97829.53
2022-12-12T02:13:11.028Z,97833.03
2022-12-12T02:16:04.196Z,97836.50
2022-12-12T02:18:57.054Z,97839.97
2022-12-12T02:21:41.621Z,97838.25
2022-12-12T02:24:44.735Z,97829.53
2022-12-12T02:27:23.272Z,97836.53
2022-12-12T02:30:11.000Z,97840.00
2022-12-12T02:32:55.951Z,97838.22
2022-12-12T02:35:31.010Z,97840.81
2022-12-12T02:38:15.801Z,97843.41
2022-12-12T02:41:07.632Z,97848.63
2022-12-12T02:43:44.822Z,97845.13
2022-12-12T02:46:24.266Z,97846.84
2022-12-12T02:48:54.312Z,97845.13
2022-12-12T02:51:22.458Z,97842.53
2022-12-12T02:53:49.157Z,97840.81
2022-12-12T02:56:54.981Z,97841.63
2022-12-12T02:59:35.305Z,97835.63
2022-12-12T03:02:26.688Z,97833.94
2022-12-12T03:05:43.189Z,97840.88
2022-12-12T03:08:31.702Z,97834.81
2022-12-12T03:11:13.443Z,97836.50
2022-12-12T03:14:05.249Z,97837.41
2022-12-12T03:17:00.993Z,97843.47
2022-12-12T03:19:36.544Z,97832.19
2022-12-12T03:22:26.227Z,97837.41
2022-12-12T03:25:34.477Z,97833.06
2022-12-12T03:28:15.013Z,97830.50
2022-12-12T03:30:46.770Z,97827.00
2022-12-12T03:33:22.092Z,97827.03
2022-12-12T03:35:55.521Z,97829.63
2022-12-12T03:38:28.858Z,97827.03
2022-12-12T03:41:01.295Z,97816.59
2022-12-12T03:43:35.475Z,97823.56
2022-12-12T03:46:20.761Z,97828.75
2022-12-12T03:48:55.616Z,97815.72
2022-12-12T03:51:27.722Z,97818.31
2022-12-12T03:54:08.741Z,97822.63
2022-12-12T03:56:47.432Z,97830.50
2022-12-12T03:59:36.621Z,97826.97
2022-12-12T04:02:21.693Z,97835.59
2022-12-12T04:05:00.281Z,97846.91
2022-12-12T04:07:34.359Z,97842.56
2022-12-12T04:10:19.692Z,97842.63
2022-12-12T04:13:15.872Z,97848.72
2022-12-12T04:15:46.808Z,97840.91
2022-12-12T04:18:13.434Z,97840.06
2022-12-12T04:21:09.900Z,97838.28
2022-12-12T04:23:47.535Z,97839.22
2022-12-12T04:26:39.232Z,97847.00
2022-12-12T04:29:16.924Z,97847.84
2022-12-12T04:32:06.953Z,97853.94
2022-12-12T04:34:42.638Z,97853.94
2022-12-12T04:37:13.735Z,97864.38
2022-12-12T04:39:43.031Z,97856.56
2022-12-12T04:42:14.649Z,97861.78
2022-12-12T04:44:44.746Z,97862.63
2022-12-12T04:47:14.027Z,97861.78
2022-12-12T04:49:45.001Z,97857.44
2022-12-12T04:52:15.270Z,97867.88
2022-12-12T04:54:51.033Z,97859.16
2022-12-12T04:57:25.587Z,97866.13
2022-12-12T04:59:52.401Z,97865.22
2022-12-12T05:02:39.846Z,97859.97
2022-12-12T05:05:12.478Z,97865.16
2022-12-12T05:07:40.670Z,97861.66
2022-12-12T05:10:11.929Z,97860.72
2022-12-12T05:12:57.275Z,97868.47
2022-12-12T05:15:24.192Z,97868.41
2022-12-12T05:18:03.140Z,97866.63
2022-12-12T05:20:29.872Z,97867.50
2022-12-12T05:22:56.508Z,97872.72
2022-12-12T05:25:23.221Z,97869.22
2022-12-12T05:27:49.855Z,97876.13
2022-12-12T05:30:16.644Z,97879.53
2022-12-12T05:32:43.289Z,97884.69
2022-12-12T05:35:11.286Z,97886.47
2022-12-12T05:37:38.195Z,97889.00
2022-12-12T05:40:06.959Z,97892.44
2022-12-12T05:42:33.595Z,97890.56
2022-12-12T05:45:00.973Z,97889.75
2022-12-12T05:47:27.613Z,97900.16
2022-12-12T05:49:54.296Z,97900.16
2022-12-12T05:52:21.288Z,97894.97
2022-12-12T05:54:47.947Z,97895.06
2022-12-12T05:57:14.679Z,97894.25
2022-12-12T05:59:41.358Z,97903.88
2022-12-12T06:02:08.010Z,97900.47
2022-12-12T06:04:34.809Z,97908.28
2022-12-12T06:07:01.520Z,97907.34
2022-12-12T06:09:28.269Z,97919.41
2022-12-12T06:11:54.891Z,97917.78
2022-12-12T06:14:21.667Z,97923.84
2022-12-12T06:16:48.318Z,97909.97
2022-12-12T06:19:15.233Z,97908.25
2022-12-12T06:21:41.868Z,97903.94
2022-12-12T06:24:08.636Z,97905.69
2022-12-12T06:26:35.313Z,97910.97
2022-12-12T06:29:02.103Z,97910.16
2022-12-12T06:31:28.784Z,97913.66
2022-12-12T06:33:55.499Z,97912.78
2022-12-12T06:36:24.343Z,97912.75
2022-12-12T06:38:51.951Z,97908.44
2022-12-12T06:41:19.326Z,97909.31
2022-12-12T06:43:46.242Z,97908.38
2022-12-12T06:46:16.742Z,97909.22
2022-12-12T06:48:44.359Z,97916.06
2022-12-12T06:51:14.650Z,97902.22
2022-12-12T06:53:41.836Z,97910.03
2022-12-12T06:56:17.731Z,97913.53
2022-12-12T06:58:44.777Z,97904.88
2022-12-12T07:01:13.360Z,97906.59
2022-12-12T07:03:40.115Z,97908.31
2022-12-12T07:06:07.434Z,97917.03
2022-12-12T07:08:35.528Z,97916.19
2022-12-12T07:11:15.428Z,97925.66
2022-12-12T07:13:42.767Z,97924.75
2022-12-12T07:16:10.356Z,97923.88
2022-12-12T07:18:37.128Z,97929.13
2022-12-12T07:21:05.567Z,97940.41
2022-12-12T07:23:32.782Z,97928.31
2022-12-12T07:26:02.618Z,97934.38
2022-12-12T07:28:29.270Z,97935.25
2022-12-12T07:30:55.950Z,97936.03
2022-12-12T07:33:22.654Z,97937.72
2022-12-12T07:35:49.252Z,97935.97
2022-12-12T07:38:15.927Z,97940.31
2022-12-12T07:40:42.504Z,97936.81
2022-12-12T07:43:09.197Z,97944.63
2022-12-12T07:45:35.850Z,97948.09
2022-12-12T07:48:02.583Z,97946.41
2022-12-12T07:50:29.297Z,97949.06
2022-12-12T07:52:56.005Z,97950.03
2022-12-12T07:55:22.673Z,97954.38
2022-12-12T07:57:49.988Z,97962.16
2022-12-12T08:00:17.375Z,97963.97
2022-12-12T08:02:44.074Z,97962.28
2022-12-12T08:05:10.945Z,97960.50
2022-12-12T08:07:37.771Z,97970.88
2022-12-12T08:10:05.692Z,97970.91
2022-12-12T08:12:32.920Z,97984.81
2022-12-12T08:14:59.579Z,97983.06
2022-12-12T08:17:26.231Z,97976.13
2022-12-12T08:19:52.914Z,97984.91
2022-12-12T08:22:20.046Z,97987.56
2022-12-12T08:24:48.940Z,97983.22
2022-12-12T08:27:16.129Z,97984.03
2022-12-12T08:29:43.565Z,97980.53
2022-12-12T08:32:10.252Z,97979.69
2022-12-12T08:34:36.892Z,97983.06
2022-12-12T08:37:03.594Z,97991.69
2022-12-12T08:39:31.589Z,97995.13
2022-12-12T08:41:58.511Z,97992.47
2022-12-12T08:44:25.209Z,97997.72
2022-12-12T08:46:51.948Z,98003.00
2022-12-12T08:49:18.712Z,98002.28
2022-12-12T08:51:45.535Z,97997.19
2022-12-12T08:54:13.052Z,97985.91
2022-12-12T08:56:40.485Z,97996.34
2022-12-12T08:59:07.206Z,97997.34
2022-12-12T09:01:34.109Z,97991.31
2022-12-12T09:04:01.604Z,97991.38
2022-12-12T09:06:28.353Z,97987.88
2022-12-12T09:08:56.205Z,97982.56
2022-12-12T09:11:23.718Z,97992.97
2022-12-12T09:13:51.887Z,97994.53
2022-12-12T09:16:19.792Z,98008.34
2022-12-12T09:18:49.266Z,98015.28
2022-12-12T09:21:16.979Z,98011.81
2022-12-12T09:23:43.653Z,98012.81
2022-12-12T09:26:10.899Z,98010.28
2022-12-12T09:28:37.721Z,98014.72
2022-12-12T09:31:06.828Z,98020.84
2022-12-12T09:33:35.128Z,98013.03
2022-12-12T09:36:04.365Z,98013.09
2022-12-12T09:38:31.605Z,97999.19
2022-12-12T09:41:00.555Z,98002.69
2022-12-12T09:43:33.214Z,98000.94
2022-12-12T09:46:03.021Z,98010.56
2022-12-12T09:48:41.375Z,98007.03
2022-12-12T09:51:09.624Z,98009.56
2022-12-12T09:53:37.396Z,98014.69
2022-12-12T09:56:29.896Z,98015.66
2022-12-12T09:59:05.445Z,98010.44
2022-12-12T10:01:44.575Z,98019.16
2022-12-12T10:04:38.167Z,98016.56
2022-12-12T10:07:25.959Z,98016.66
2022-12-12T10:10:23.172Z,98015.81
2022-12-12T10:12:51.433Z,98009.75
2022-12-12T10:15:29.668Z,98002.81
2022-12-12T10:18:00.206Z,98006.31
2022-12-12T10:20:32.204Z,98002.91
2022-12-12T10:23:20.659Z,97988.94
2022-12-12T10:25:56.847Z,97994.19
2022-12-12T10:28:26.039Z,97982.81
2022-12-12T10:31:30.438Z,97981.97
2022-12-12T10:34:12.483Z,97985.44
2022-12-12T10:37:10.660Z,97982.84
2022-12-12T10:39:56.128Z,97965.25
2022-12-12T10:42:57.871Z,97931.97
2022-12-12T10:45:30.607Z,97915.31
2022-12-12T10:47:57.409Z,97904.03
2022-12-12T10:50:26.765Z,97933.00
2022-12-12T10:52:54.001Z,97935.56
2022-12-12T10:55:49.576Z,97923.16
2022-12-12T10:58:19.878Z,97942.97
2022-12-12T11:00:48.981Z,97945.38
2022-12-12T11:03:36.073Z,97947.09
2022-12-12T11:06:15.378Z,97952.88
2022-12-12T11:08:53.843Z,97942.00
2022-12-12T11:11:24.020Z,97921.50
2022-12-12T11:14:03.105Z,97917.44
2022-12-12T11:16:41.101Z,97913.13
2022-12-12T11:19:20.127Z,97910.00
2022-12-12T11:21:47.827Z,97893.13
2022-12-12T11:24:29.508Z,97885.56
2022-12-12T11:26:59.403Z,97864.06
2022-12-12T11:29:46.645Z,97867.47
2022-12-12T11:32:20.735Z,97864.78
2022-12-12T11:34:51.468Z,97868.69
2022-12-12T11:37:21.822Z,97871.06
2022-12-12T11:39:53.183Z,97865.38
2022-12-12T11:42:31.087Z,97865.72
2022-12-12T11:45:04.912Z,97866.78
2022-12-12T11:47:40.675Z,97872.00
2022-12-12T11:50:29.051Z,97869.38
2022-12-12T11:53:03.198Z,97865.25
2022-12-12T11:55:57.643Z,97857.38
2022-12-12T11:58:32.467Z,97862.53
2022-12-12T12:01:25.827Z,97866.84
2022-12-12T12:04:11.370Z,97864.16
2022-12-12T12:06:49.466Z,97872.25
2022-12-12T12:09:31.935Z,97872.19
2022-12-12T12:12:12.979Z,97882.47
2022-12-12T12:14:52.082Z,97884.69
2022-12-12T12:17:21.720Z,97885.97
2022-12-12T12:20:03.342Z,97892.47
2022-12-12T12:23:04.175Z,97891.69
2022-12-12T12:25:45.826Z,97902.00
2022-12-12T12:28:52.726Z,97904.69
2022-12-12T12:31:40.898Z,97912.56
2022-12-12T12:34:18.877Z,97906.88
2022-12-12T12:36:45.572Z,97902.03
2022-12-12T12:39:52.994Z,97899.41
2022-12-12T12:42:38.249Z,97897.16
2022-12-12T12:45:21.483Z,97908.06
2022-12-12T12:47:55.931Z,97904.63
2022-12-12T12:50:40.897Z,97903.88
2022-12-12T12:53:33.504Z,97900.47
2022-12-12T12:56:07.742Z,97895.38
2022-12-12T12:58:42.774Z,97891.16
2022-12-12T13:01:14.731Z,97903.34
2022-12-12T13:03:51.948Z,97901.69
2022-12-12T13:06:32.738Z,97893.91
2022-12-12T13:09:20.922Z,97891.31
2022-12-12T13:11:50.668Z,97888.72
2022-12-12T13:14:41.435Z,97888.69
2022-12-12T13:17:17.254Z,97881.75
2022-12-12T13:19:47.069Z,97883.50
2022-12-12T13:22:51.293Z,97874.78
2022-12-12T13:25:30.977Z,97871.28
2022-12-12T13:28:00.859Z,97866.94
2022-12-12T13:30:45.783Z,97860.03
2022-12-12T13:33:29.686Z,97864.41
2022-12-12T13:36:08.729Z,97861.78
2022-12-12T13:38:35.812Z,97871.31
2022-12-12T13:41:06.513Z,97863.53
2022-12-12T13:43:33.075Z,97866.13
2022-12-12T13:46:28.628Z,97872.19
2022-12-12T13:49:07.163Z,97877.28
2022-12-12T13:51:44.613Z,97871.16
2022-12-12T13:54:14.480Z,97876.31
2022-12-12T13:56:47.834Z,97873.69
2022-12-12T13:59:23.643Z,97869.38
2022-12-12T14:01:52.758Z,97864.19
2022-12-12T14:04:43.854Z,97860.75
2022-12-12T14:07:25.377Z,97852.06
2022-12-12T14:09:55.915Z,97845.19
2022-12-12T14:12:32.004Z,97842.56
2022-12-12T14:15:02.172Z,97834.84
2022-12-12T14:17:38.393Z,97827.88
2022-12-12T14:20:25.103Z,97835.72
2022-12-12T14:22:51.659Z,97827.91
2022-12-12T14:25:36.348Z,97834.91
2022-12-12T14:28:13.574Z,97829.69
2022-12-12T14:30:47.433Z,97825.34
2022-12-12T14:33:17.087Z,97821.88
2022-12-12T14:36:02.148Z,97828.81
2022-12-12T14:39:06.957Z,97837.53
2022-12-12T14:41:37.915Z,97848.81
2022-12-12T14:44:36.147Z,97849.72
2022-12-12T14:47:07.684Z,97862.75
2022-12-12T14:49:34.491Z,97870.56
2022-12-12T14:52:01.546Z,97873.19
2022-12-12T14:54:28.285Z,97874.91
2022-12-12T14:57:04.076Z,97874.94
2022-12-12T14:59:39.813Z,97879.25
2022-12-12T15:02:15.952Z,97869.69
2022-12-12T15:04:47.050Z,97868.81
2022-12-12T15:07:28.604Z,97867.91
2022-12-12T15:09:55.312Z,97868.75
2022-12-12T15:12:24.909Z,97869.59
2022-12-12T15:14:55.078Z,97866.94
2022-12-12T15:17:30.971Z,97868.66
2022-12-12T15:20:01.647Z,97863.41
2022-12-12T15:22:28.332Z,97872.06
2022-12-12T15:24:57.275Z,97873.78
2022-12-12T15:27:41.976Z,97870.31
2022-12-12T15:30:28.878Z,97869.44
2022-12-12T15:32:55.721Z,97867.66
2022-12-12T15:35:23.376Z,97871.13
2022-12-12T15:38:01.773Z,97867.66
2022-12-12T15:40:30.818Z,97867.59
2022-12-12T15:43:07.121Z,97865.81
2022-12-12T15:45:37.814Z,97865.72
2022-12-12T15:48:06.159Z,97866.63
2022-12-12T15:50:38.556Z,97868.34
2022-12-12T15:53:32.526Z,97876.16
2022-12-12T15:55:59.156Z,97871.84
2022-12-12T15:58:35.527Z,97881.41
2022-12-12T16:01:20.844Z,97875.31
2022-12-12T16:04:26.002Z,97878.72
2022-12-12T16:06:52.747Z,97882.91
2022-12-12T16:09:22.064Z,97885.44
2022-12-12T16:11:54.385Z,97883.66
2022-12-12T16:14:40.668Z,97893.91
2022-12-12T16:17:20.691Z,97893.91
2022-12-12T16:20:05.961Z,97898.28
2022-12-12T16:22:35.783Z,97906.06
2022-12-12T16:25:11.557Z,97901.84
2022-12-12T16:27:38.264Z,97896.66
2022-12-12T16:30:05.708Z,97907.94
2022-12-12T16:32:32.387Z,97903.56
2022-12-12T16:34:59.081Z,97905.28
2022-12-12T16:37:25.750Z,97912.19
2022-12-12T16:39:52.631Z,97911.25
2022-12-12T16:42:20.939Z,97907.81
2022-12-12T16:44:47.758Z,97908.63
2022-12-12T16:47:19.671Z,97912.91
2022-12-12T16:49:46.955Z,97909.31
2022-12-12T16:52:18.652Z,97914.50
2022-12-12T16:54:52.796Z,97911.00
2022-12-12T16:57:21.505Z,97902.22
2022-12-12T16:59:48.274Z,97900.53
2022-12-12T17:02:20.840Z,97896.16
2022-12-12T17:04:48.700Z,97900.34
2022-12-12T17:07:16.262Z,97899.47
2022-12-12T17:09:43.219Z,97904.66
2022-12-12T17:12:11.707Z,97902.88
2022-12-12T17:14:38.610Z,97896.84
2022-12-12T17:17:05.473Z,97895.06
2022-12-12T17:19:32.660Z,97893.31
2022-12-12T17:21:59.640Z,97897.78
2022-12-12T17:24:26.839Z,97899.59
2022-12-12T17:26:53.760Z,97897.88
2022-12-12T17:29:21.808Z,97903.19
2022-12-12T17:31:48.694Z,97898.88
2022-12-12T17:34:15.768Z,97898.91
2022-12-12T17:36:42.616Z,97900.59
2022-12-12T17:39:10.942Z,97902.19
2022-12-12T17:41:37.863Z,97885.72
2022-12-12T17:44:05.132Z,97883.94
2022-12-12T17:46:32.431Z,97885.66
2022-12-12T17:49:01.777Z,97874.44
2022-12-12T17:51:29.543Z,97877.09
2022-12-12T17:53:56.600Z,97872.81
2022-12-12T17:56:24.748Z,97875.47
2022-12-12T17:58:52.435Z,97884.22
2022-12-12T18:01:31.607Z,97879.00
2022-12-12T18:03:59.821Z,97881.63
2022-12-12T18:06:29.225Z,97886.81
2022-12-12T18:08:56.873Z,97879.00
2022-12-12T18:11:27.376Z,97880.75
2022-12-12T18:13:57.730Z,97882.47
2022-12-12T18:16:27.143Z,97876.44
2022-12-12T18:18:56.108Z,97873.75
2022-12-12T18:21:59.235Z,97881.50
2022-12-12T18:24:13.812Z,97886.66
2022-12-12T18:26:41.056Z,97884.03
2022-12-12T18:29:08.758Z,97883.09
2022-12-12T18:31:35.726Z,97878.75
2022-12-12T18:34:03.459Z,97878.69
2022-12-12T18:36:31.356Z,97880.22
2022-12-12T18:39:00.332Z,97877.38
2022-12-12T18:41:28.382Z,97877.38
2022-12-12T18:43:55.619Z,97872.00
2022-12-12T18:46:24.673Z,97876.22
2022-12-12T18:48:51.484Z,97873.63
2022-12-12T18:51:23.756Z,97869.16
2022-12-12T18:53:52.252Z,97872.56
2022-12-12T18:56:24.491Z,97871.72
2022-12-12T18:58:55.559Z,97870.03
2022-12-12T19:01:24.946Z,97871.69
2022-12-12T19:03:53.403Z,97871.66
2022-12-12T19:06:22.668Z,97875.94
2022-12-12T19:08:49.422Z,97866.38
2022-12-12T19:11:16.763Z,97868.91
2022-12-12T19:13:43.506Z,97863.66
2022-12-12T19:16:13.323Z,97866.09
2022-12-12T19:18:41.349Z,97860.00
2022-12-12T19:21:13.570Z,97858.34
2022-12-12T19:23:41.142Z,97853.94
2022-12-12T19:26:10.963Z,97854.00
2022-12-12T19:28:38.192Z,97854.81
2022-12-12T19:31:10.516Z,97858.47
2022-12-12T19:33:37.641Z,97853.25
2022-12-12T19:36:16.871Z,97851.41
2022-12-12T19:38:44.611Z,97849.53
2022-12-12T19:41:14.092Z,97843.56
2022-12-12T19:43:42.350Z,97844.38
2022-12-12T19:46:12.147Z,97844.44
2022-12-12T19:48:39.919Z,97850.41
2022-12-12T19:51:18.479Z,97852.84
2022-12-12T19:53:47.624Z,97857.03
2022-12-12T19:56:17.024Z,97863.81
2022-12-12T19:58:44.283Z,97871.69
2022-12-12T20:01:18.157Z,97867.25
2022-12-12T20:03:53.768Z,97861.28
2022-12-12T20:06:20.933Z,97863.94
2022-12-12T20:08:48.119Z,97860.25
2022-12-12T20:11:21.128Z,97863.75
2022-12-12T20:13:54.583Z,97867.72
2022-12-12T20:16:24.695Z,97865.00
2022-12-12T20:18:52.455Z,97867.72
2022-12-12T20:21:59.140Z,97862.56
2022-12-12T20:24:12.557Z,97858.34
2022-12-12T20:26:40.712Z,97862.66
2022-12-12T20:29:08.940Z,97855.38
2022-12-12T20:31:38.017Z,97851.19
2022-12-12T20:34:04.918Z,97852.75
2022-12-12T20:36:34.221Z,97855.16
2022-12-12T20:39:03.823Z,97856.91
2022-12-12T20:41:34.473Z,97852.56
2022-12-12T20:44:01.211Z,97851.69
2022-12-12T20:46:33.820Z,97849.97
2022-12-12T20:49:03.528Z,97848.50
2022-12-12T20:51:54.662Z,97845.91
2022-12-12T20:54:19.818Z,97842.44
2022-12-12T20:56:46.782Z,97841.66
2022-12-12T20:59:14.468Z,97845.91
2022-12-12T21:01:41.433Z,97843.13
2022-12-12T21:04:09.406Z,97848.00
2022-12-12T21:06:39.738Z,97843.75
2022-12-12T21:09:09.644Z,97846.47
2022-12-12T21:11:38.042Z,97840.09
2022-12-12T21:14:06.102Z,97855.59
2022-12-12T21:16:36.015Z,97844.53
2022-12-12T21:19:06.347Z,97848.13
2022-12-12T21:21:33.237Z,97840.41
2022-12-12T21:24:00.526Z,97844.81
2022-12-12T21:26:29.633Z,97836.16
2022-12-12T21:28:57.723Z,97839.56
2022-12-12T21:31:27.993Z,97837.63
2022-12-12T21:33:55.343Z,97834.41
2022-12-12T21:36:23.520Z,97825.56
2022-12-12T21:38:51.948Z,97826.63
2022-12-12T21:41:21.551Z,97826.59
2022-12-12T21:43:49.389Z,97826.53
2022-12-12T21:46:22.534Z,97827.22
2022-12-12T21:49:08.491Z,97829.88
2022-12-12T21:51:35.745Z,97827.31
2022-12-12T21:54:07.047Z,97827.41
2022-12-12T21:56:34.074Z,97829.69
2022-12-12T21:59:00.781Z,97824.69
2022-12-12T22:01:27.802Z,97822.94
2022-12-12T22:03:55.189Z,97831.44
2022-12-12T22:06:25.727Z,97817.69
2022-12-12T22:08:55.162Z,97819.22
2022-12-12T22:11:39.751Z,97820.16
2022-12-12T22:14:09.040Z,97815.00
2022-12-12T22:16:35.804Z,97811.56
2022-12-12T22:19:06.471Z,97806.56
2022-12-12T22:21:34.299Z,97810.84
2022-12-12T22:24:01.326Z,97804.00
2022-12-12T22:26:34.362Z,97799.44
2022-12-12T22:29:04.498Z,97802.13
2022-12-12T22:31:35.340Z,97800.53
2022-12-12T22:34:04.692Z,97797.09
2022-12-12T22:36:34.895Z,97800.41
2022-12-12T22:39:01.940Z,97808.09
2022-12-12T22:41:29.475Z,97808.28
2022-12-12T22:43:58.239Z,97810.06
2022-12-12T22:46:26.308Z,97816.22
2022-12-12T22:48:54.737Z,97808.50
2022-12-12T22:51:24.832Z,97804.03
2022-12-12T22:53:51.931Z,97803.28
2022-12-12T22:56:18.626Z,97798.94
2022-12-12T22:58:45.391Z,97801.47
2022-12-12T23:01:18.384Z,97795.44
2022-12-12T23:03:46.225Z,97783.31
2022-12-12T23:06:22.996Z,97784.88
2022-12-12T23:08:55.587Z,97784.13
2022-12-12T23:11:23.518Z,97776.31
2022-12-12T23:13:53.000Z,97771.06
2022-12-12T23:16:21.973Z,97765.03
2022-12-12T23:18:48.664Z,97764.81
2022-12-12T23:21:18.345Z,97768.38
2022-12-12T23:23:46.013Z,97766.78
2022-12-12T23:26:15.959Z,97764.06
2022-12-12T23:28:44.007Z,97757.28
2022-12-12T23:31:18.696Z,97750.34
2022-12-12T23:33:46.603Z,97747.75
2022-12-12T23:36:15.429Z,97757.34
2022-12-12T23:38:43.573Z,97760.88
2022-12-12T23:41:12.992Z,97754.75
2022-12-12T23:43:40.632Z,97751.09
2022-12-12T23:46:28.028Z,97741.56
2022-12-12T23:48:59.218Z,97742.69
2022-12-12T23:51:28.310Z,97741.81
2022-12-12T23:54:00.722Z,97740.16
2022-12-12T23:56:28.236Z,97736.63
2022-12-12T23:58:56.775Z,97738.13
